Terminal Aerodrome Forecast
Issued by NWS St Louis, MO

Home | Current Version | Previous Version | Text Only | Print | Product List | Glossary On
Versions: 1 2 3 4 5 6 7 8 9 10 11 12 13 14 15 16 17 18 19 20 21 22 23
548
FTUS43 KLSX 030308 AAA
TAFSTL
TAF AMD
KSTL 030308Z 0303/0406 VRB04KT P6SM SCT015 BKN030
      TEMPO 0303/0305 BKN015
     FM030500 VRB04KT P6SM BKN040
     FM031500 33007KT P6SM BKN040
     FM040100 27006KT P6SM SCT050=

USA.gov is the U.S. government's official web portal to all federal, state and local government web resources and services.